Coyle, Oklahoma
Current Conditions -  °F | °C
As of 9:53 PM on Sunday 25 Jan 2015 (Local Time) from KGOK Reporting Station
Clear Clear  
Wind Chill: 38°   Ceiling: Unl
Heat Index: 38°   Visibility: 10mi
Dew Point: 28°   Wind: 3mph
Humidity: 68%   Direction: 20°NNE
Pressure: 30.15"   Gusts: NA
Location:  35.96°N, 97.23°W
Report Text: KGOK 260353Z AUTO 02003KT 10SM CLR 03/M02 A3015 RMK AO2 SLP215 T00331022 $
Loading
Personal Weather Stations






























Interactive Weather Map New forecast layout! Learn more

10-Day Weather Forecast

Advertisements
Track Severe Weather on mobile